Time;durP1;ratioP1;P1;durP2;ratioP2;P2;SDS_P1;SDS_P2;PMS_P1;PMS_P2;Temp;Humidity;BMP_temperature;BMP_pressure;BME280_temperature;BME280_humidity;BME280_pressure;Samples;Min_cycle;Max_cycle;Signal;HPM_P1;HPM_P2
2024/03/12 00:04:58;;;;;;;102.70;47.70;;;;;;;7.03;100.00;99980.56;214343;1282;138878;-82
2024/03/12 00:09:58;;;;;;;108.70;47.90;;;;;;;7.04;100.00;99980.34;214179;1285;140157;-84
2024/03/12 00:14:59;;;;;;;97.60;43.60;;;;;;;7.04;100.00;99979.40;214399;1282;139452;-83
2024/03/12 00:20:15;;;;;;;116.30;48.00;;;;;;;7.05;100.00;99980.06;214179;1282;140674;-83
2024/03/12 00:25:19;;;;;;;96.60;43.50;;;;;;;7.03;100.00;99981.27;214590;1284;139653;-83
2024/03/12 00:30:19;;;;;;;105.20;48.60;;;;;;;6.97;100.00;99974.68;216071;1284;140839;-82
2024/03/12 00:35:23;;;;;;;112.50;49.90;;;;;;;6.98;100.00;99984.08;215019;1285;138802;-83
2024/03/12 00:40:33;;;;;;;105.90;45.00;;;;;;;6.97;100.00;99979.21;214465;1284;141018;-83
2024/03/12 00:45:36;;;;;;;103.50;47.10;;;;;;;6.98;100.00;99981.02;214880;1282;139344;-84
2024/03/12 00:50:37;;;;;;;107.90;49.60;;;;;;;6.95;100.00;99977.75;218614;1284;140013;-84
2024/03/12 00:55:41;;;;;;;120.30;46.00;;;;;;;6.93;100.00;99969.67;215681;1285;138746;-83
2024/03/12 01:00:41;;;;;;;111.30;47.90;;;;;;;6.93;100.00;99967.33;215013;1287;140213;-82
2024/03/12 01:05:42;;;;;;;115.10;47.20;;;;;;;6.93;100.00;99970.38;214631;1284;139573;-83
2024/03/12 01:10:43;;;;;;;121.70;49.40;;;;;;;6.90;100.00;99967.73;214018;1288;140424;-82
2024/03/12 01:15:43;;;;;;;125.50;50.20;;;;;;;6.88;100.00;99973.48;214587;1285;139343;-82
2024/03/12 01:20:44;;;;;;;135.10;54.00;;;;;;;6.86;100.00;99976.11;214193;1282;140225;-83
2024/03/12 01:25:46;;;;;;;113.50;47.80;;;;;;;6.82;100.00;99975.09;214677;1284;138828;-82
2024/03/12 01:30:46;;;;;;;122.30;48.80;;;;;;;6.81;100.00;99972.19;213968;1285;140375;-83
2024/03/12 01:35:47;;;;;;;107.30;46.00;;;;;;;6.80;100.00;99973.25;214402;1288;139591;-83
2024/03/12 01:40:47;;;;;;;127.60;49.50;;;;;;;6.79;100.00;99982.85;214129;1285;140606;-83
2024/03/12 01:45:47;;;;;;;110.60;49.60;;;;;;;6.78;100.00;99988.94;214365;1282;138915;-82
2024/03/12 01:50:49;;;;;;;132.60;49.80;;;;;;;6.82;100.00;99996.51;214065;1288;140568;-82
2024/03/12 01:55:51;;;;;;;120.70;49.30;;;;;;;6.78;100.00;99990.73;214582;1285;99013;-82
2024/03/12 02:00:51;;;;;;;123.40;50.30;;;;;;;6.77;100.00;99995.95;214144;1286;140883;-82
2024/03/12 02:05:52;;;;;;;98.50;45.90;;;;;;;6.78;100.00;99996.58;215044;1286;138836;-83
2024/03/12 02:10:52;;;;;;;113.30;49.00;;;;;;;6.76;100.00;100002.11;214090;1288;141334;-83
2024/03/12 02:15:52;;;;;;;119.60;48.40;;;;;;;6.75;100.00;99998.63;214563;1283;139117;-83
2024/03/12 02:20:53;;;;;;;98.60;42.80;;;;;;;6.75;100.00;99993.33;214033;1288;140429;-83
2024/03/12 02:25:53;;;;;;;107.30;47.30;;;;;;;6.78;100.00;99989.86;214688;1287;99273;-83
2024/03/12 02:30:54;;;;;;;94.90;44.50;;;;;;;6.80;100.00;99991.71;213938;1282;140656;-83
2024/03/12 02:35:54;;;;;;;105.80;46.20;;;;;;;6.83;100.00;99997.07;214643;1282;138665;-83
2024/03/12 02:40:54;;;;;;;115.90;47.40;;;;;;;6.82;100.00;99994.39;214023;1288;140361;-83
2024/03/12 02:45:55;;;;;;;100.90;44.20;;;;;;;6.81;100.00;100000.55;214579;1285;139323;-82
2024/03/12 02:50:56;;;;;;;90.00;41.70;;;;;;;6.82;100.00;99999.86;213776;1285;140722;-83
2024/03/12 02:55:56;;;;;;;95.70;43.40;;;;;;;6.87;100.00;100003.48;214537;1282;99283;-82
2024/03/12 03:00:57;;;;;;;92.10;42.10;;;;;;;6.90;100.00;100002.20;212672;1288;139326;-83
2024/03/12 03:05:57;;;;;;;87.40;41.50;;;;;;;6.90;100.00;100000.64;214155;1288;139078;-83
2024/03/12 03:10:58;;;;;;;100.90;46.40;;;;;;;6.91;100.00;100001.67;213837;1288;139502;-82
2024/03/12 03:15:58;;;;;;;88.00;42.10;;;;;;;6.93;100.00;100001.73;213041;1289;139144;-82
2024/03/12 03:20:59;;;;;;;91.20;42.00;;;;;;;6.90;100.00;100000.57;212660;1288;140355;-82
2024/03/12 03:25:59;;;;;;;86.80;42.40;;;;;;;6.87;100.00;100003.71;213241;1285;98530;-83
2024/03/12 03:30:59;;;;;;;93.60;44.00;;;;;;;6.89;100.00;100002.35;212696;1288;140621;-82
2024/03/12 03:36:00;;;;;;;95.60;42.90;;;;;;;6.92;100.00;100007.79;213032;1282;139077;-82
2024/03/12 03:41:00;;;;;;;97.20;44.60;;;;;;;6.92;100.00;100004.98;212571;1288;140435;-83
2024/03/12 03:46:02;;;;;;;84.50;41.30;;;;;;;6.93;100.00;100004.52;213175;1288;139195;-82
2024/03/12 03:51:03;;;;;;;90.30;39.60;;;;;;;6.96;100.00;100009.58;212795;1288;140839;-82
2024/03/12 03:56:03;;;;;;;88.00;41.80;;;;;;;6.95;100.00;100010.66;213087;1282;99303;-83
2024/03/12 04:01:04;;;;;;;87.70;43.50;;;;;;;6.96;100.00;100013.58;212622;1285;140413;-82
2024/03/12 04:06:06;;;;;;;92.80;42.10;;;;;;;6.95;100.00;100007.15;213998;1288;139456;-83
2024/03/12 04:11:07;;;;;;;86.30;41.50;;;;;;;6.95;100.00;100006.68;214301;1285;140443;-81
2024/03/12 04:16:07;;;;;;;97.50;44.10;;;;;;;6.95;100.00;100004.02;214355;1285;138857;-83
2024/03/12 04:21:08;;;;;;;95.80;44.30;;;;;;;6.92;100.00;100005.38;213931;1288;141466;-83
2024/03/12 04:26:08;;;;;;;100.80;43.50;;;;;;;6.91;100.00;100010.83;214986;1282;98932;-83
2024/03/12 04:31:08;;;;;;;98.40;44.00;;;;;;;6.88;100.00;100006.62;218803;1285;140677;-83
2024/03/12 04:36:13;;;;;;;101.50;42.60;;;;;;;6.88;100.00;100008.58;219522;1282;139418;-83
2024/03/12 04:41:14;;;;;;;98.80;44.20;;;;;;;6.88;100.00;100006.16;214530;1288;140228;-83
2024/03/12 04:46:15;;;;;;;107.10;46.50;;;;;;;6.88;100.00;100003.89;214427;1288;138921;-83
2024/03/12 04:51:16;;;;;;;105.70;42.10;;;;;;;6.90;100.00;100008.85;214076;1287;139654;-83
2024/03/12 04:56:16;;;;;;;106.90;46.70;;;;;;;6.90;100.00;100011.27;214187;1282;138660;-83
2024/03/12 05:01:17;;;;;;;103.30;44.80;;;;;;;6.89;100.00;100012.52;214179;1283;140104;-82
2024/03/12 05:06:19;;;;;;;112.20;44.00;;;;;;;6.90;100.00;100015.10;214108;1288;139820;-83
2024/03/12 05:11:19;;;;;;;104.10;45.20;;;;;;;6.91;100.00;100017.86;214901;1285;139159;-84
2024/03/12 05:16:24;;;;;;;117.60;48.10;;;;;;;6.90;100.00;100015.73;213761;1288;140568;-84
2024/03/12 05:21:26;;;;;;;106.70;46.00;;;;;;;6.90;100.00;100021.20;214407;1288;139086;-83
2024/03/12 05:26:28;;;;;;;112.70;45.90;;;;;;;6.90;100.00;100029.10;214210;1286;140426;-82
2024/03/12 05:31:38;;;;;;;110.20;47.20;;;;;;;6.91;100.00;100036.13;214213;1285;139552;-82
2024/03/12 05:36:41;;;;;;;108.70;44.70;;;;;;;6.92;100.00;100048.60;214015;1282;140517;-83
2024/03/12 05:41:49;;;;;;;120.00;45.80;;;;;;;6.93;100.00;100056.58;214349;1284;139848;-83
2024/03/12 05:48:07;;;;;;;106.50;45.50;;;;;;;6.92;100.00;100066.34;213802;1282;141152;-83
2024/03/12 05:52:10;;;;;;;110.90;47.00;;;;;;;6.93;100.00;100069.71;214342;1282;139028;-83
2024/03/12 05:57:11;;;;;;;105.50;42.30;;;;;;;6.94;100.00;100073.02;213804;1288;140481;-83
2024/03/12 06:02:11;;;;;;;101.20;40.70;;;;;;;6.97;100.00;100082.86;214574;1288;98932;-84
2024/03/12 06:07:12;;;;;;;86.70;38.90;;;;;;;7.00;100.00;100081.17;214273;1288;140861;-84
2024/03/12 06:12:13;;;;;;;75.90;33.40;;;;;;;7.02;100.00;100085.91;215193;1282;137570;-82
2024/03/12 06:17:13;;;;;;;85.80;36.00;;;;;;;7.02;100.00;100091.24;213792;1288;140059;-82
2024/03/12 06:22:13;;;;;;;73.90;32.90;;;;;;;7.04;100.00;100096.90;212957;1288;139695;-83
2024/03/12 06:27:14;;;;;;;79.80;30.90;;;;;;;7.06;100.00;100104.21;212618;1287;140757;-83
2024/03/12 06:32:18;;;;;;;70.10;32.20;;;;;;;7.09;100.00;100109.25;213212;1292;98023;-83
2024/03/12 06:37:18;;;;;;;69.80;31.70;;;;;;;7.11;100.00;100111.89;213486;1283;139925;-83
2024/03/12 06:42:25;;;;;;;67.30;30.50;;;;;;;7.15;100.00;100111.35;214503;1287;138715;-84
2024/03/12 06:47:26;;;;;;;68.20;30.50;;;;;;;7.19;100.00;100115.09;213970;1288;141621;-83
2024/03/12 06:52:26;;;;;;;62.50;29.20;;;;;;;7.23;100.00;100119.95;214521;1285;138849;-83
2024/03/12 06:57:27;;;;;;;61.10;28.70;;;;;;;7.28;100.00;100124.50;214208;1287;141036;-84
2024/03/12 07:02:30;;;;;;;68.90;32.00;;;;;;;7.33;100.00;100124.52;214743;1288;97943;-84
2024/03/12 07:07:32;;;;;;;68.20;32.90;;;;;;;7.36;100.00;100124.96;213957;1288;139973;-83
2024/03/12 07:12:33;;;;;;;65.60;29.90;;;;;;;7.38;100.00;100125.31;214691;1282;139440;-84
2024/03/12 07:17:33;;;;;;;64.60;30.30;;;;;;;7.41;100.00;100123.66;213996;1288;141774;-83
2024/03/12 07:22:36;;;;;;;62.10;30.30;;;;;;;7.47;100.00;100124.46;214534;1285;139122;-83
2024/03/12 07:27:38;;;;;;;61.80;30.70;;;;;;;7.54;100.00;100128.67;213885;1288;140528;-83
2024/03/12 07:32:39;;;;;;;62.10;28.10;;;;;;;7.62;100.00;100128.41;214889;1288;98030;-83
2024/03/12 07:37:41;;;;;;;64.20;29.60;;;;;;;7.70;100.00;100128.64;213697;1283;140822;-83
2024/03/12 07:42:42;;;;;;;59.70;29.40;;;;;;;7.78;100.00;100128.09;214824;1288;138826;-84
2024/03/12 07:47:43;;;;;;;55.20;27.00;;;;;;;7.87;100.00;100133.64;214384;1285;141070;-83
2024/03/12 07:52:45;;;;;;;54.10;26.90;;;;;;;8.01;100.00;100137.64;215171;1286;139639;-83
2024/03/12 07:57:46;;;;;;;61.00;28.90;;;;;;;8.13;100.00;100134.55;214698;1288;140224;-82
2024/03/12 08:02:46;;;;;;;57.60;29.70;;;;;;;8.27;100.00;100135.58;215177;1282;99305;-83
2024/03/12 08:07:46;;;;;;;51.80;28.10;;;;;;;8.43;100.00;100134.71;214373;1288;141161;-84
2024/03/12 08:12:47;;;;;;;52.80;27.20;;;;;;;8.60;100.00;100138.11;214977;1288;139315;-87
2024/03/12 08:17:47;;;;;;;56.30;28.00;;;;;;;8.71;100.00;100147.05;214191;1288;141850;-85
2024/03/12 08:22:48;;;;;;;53.20;28.30;;;;;;;8.79;100.00;100148.41;214400;1282;138808;-83
2024/03/12 08:27:48;;;;;;;51.40;28.40;;;;;;;8.88;100.00;100148.91;213929;1288;246784;-84
2024/03/12 08:32:50;;;;;;;56.60;28.90;;;;;;;8.98;100.00;100147.64;214661;1282;98070;-84
2024/03/12 08:37:50;;;;;;;58.30;29.90;;;;;;;9.09;100.00;100156.25;214100;1288;141674;-84
2024/03/12 08:42:51;;;;;;;56.30;30.30;;;;;;;9.18;100.00;100158.16;214325;1285;139045;-84
2024/03/12 08:47:51;;;;;;;52.00;30.10;;;;;;;9.21;100.00;100161.73;214156;1285;141207;-84
2024/03/12 08:52:51;;;;;;;49.40;29.00;;;;;;;9.15;100.00;100159.95;214349;1286;139347;-84
2024/03/12 08:57:52;;;;;;;65.50;34.60;;;;;;;9.13;100.00;100162.58;213691;1288;140637;-83
2024/03/12 09:02:53;;;;;;;67.60;34.60;;;;;;;9.19;100.00;100166.41;214758;1290;139321;-84
2024/03/12 09:07:53;;;;;;;66.20;35.90;;;;;;;9.30;100.00;100164.43;214646;1290;140471;-84
2024/03/12 09:12:54;;;;;;;60.60;34.10;;;;;;;9.41;100.00;100160.02;215003;1288;139343;-83
2024/03/12 09:17:54;;;;;;;61.80;34.40;;;;;;;9.52;100.00;100164.54;215100;1296;141286;-84
2024/03/12 09:22:55;;;;;;;68.00;37.30;;;;;;;9.48;100.00;100164.65;214733;1289;138970;-83
2024/03/12 09:27:55;;;;;;;69.10;39.30;;;;;;;9.57;100.00;100168.67;214287;1288;140167;-84
2024/03/12 09:32:56;;;;;;;80.70;42.00;;;;;;;9.76;100.00;100169.64;214865;1289;139325;-84
2024/03/12 09:37:56;;;;;;;92.70;43.70;;;;;;;9.84;100.00;100177.20;214304;1289;139825;-83
2024/03/12 09:43:00;;;;;;;95.10;46.90;;;;;;;9.94;100.00;100176.82;214430;1296;139807;-83
2024/03/12 09:48:01;;;;;;;93.90;45.70;;;;;;;10.05;100.00;100184.56;213937;1289;140877;-83
2024/03/12 09:53:01;;;;;;;97.00;47.60;;;;;;;10.09;100.00;100191.21;214467;1288;139436;-84
2024/03/12 09:58:02;;;;;;;103.00;47.90;;;;;;;10.19;100.00;100189.65;213898;1283;142337;-84
2024/03/12 10:03:03;;;;;;;89.00;44.40;;;;;;;10.23;100.00;100191.48;214123;1292;140113;-83
2024/03/12 10:08:15;;;;;;;90.00;48.00;;;;;;;10.37;100.00;100197.03;213981;1288;140858;-83
2024/03/12 10:13:16;;;;;;;84.30;43.70;;;;;;;10.54;100.00;100196.53;214393;1288;139625;-84
2024/03/12 10:18:18;;;;;;;86.40;45.80;;;;;;;10.73;100.00;100201.86;214368;1288;139869;-83
2024/03/12 10:23:20;;;;;;;86.80;44.90;;;;;;;10.74;100.00;100207.45;214405;1288;139919;-84
2024/03/12 10:28:26;;;;;;;85.50;43.40;;;;;;;10.71;100.00;100216.31;214192;1285;140440;-85
2024/03/12 10:33:32;;;;;;;85.50;44.50;;;;;;;10.78;100.00;100217.62;214567;1283;139815;-83
2024/03/12 10:38:33;;;;;;;82.90;43.80;;;;;;;10.89;100.00;100214.16;213770;1285;142187;-83
2024/03/12 10:43:33;;;;;;;84.70;45.30;;;;;;;10.96;100.00;100216.24;214351;1283;139701;-84
2024/03/12 10:48:36;;;;;;;83.30;44.30;;;;;;;11.06;100.00;100220.00;213926;1285;141018;-84
2024/03/12 10:53:37;;;;;;;74.50;41.80;;;;;;;11.05;100.00;100224.95;214483;1282;139313;-84
2024/03/12 10:58:38;;;;;;;73.80;40.80;;;;;;;11.06;100.00;100225.52;214047;1283;140965;-83
2024/03/12 11:03:39;;;;;;;79.10;42.10;;;;;;;11.14;100.00;100229.17;214447;1286;139457;-84
2024/03/12 11:08:42;;;;;;;79.70;43.30;;;;;;;11.18;100.00;100231.88;214006;1285;140854;-84
2024/03/12 11:13:43;;;;;;;79.80;43.50;;;;;;;11.24;100.00;100227.34;215012;1285;139272;-84
2024/03/12 11:18:44;;;;;;;82.70;45.60;;;;;;;11.34;100.00;100224.86;214767;1288;140804;-85
2024/03/12 11:23:46;;;;;;;72.20;42.90;;;;;;;11.37;100.00;100220.09;214425;1284;139515;-84
2024/03/12 11:28:48;;;;;;;84.90;43.80;;;;;;;11.45;100.00;100216.10;213860;1287;141197;-84
2024/03/12 11:33:54;;;;;;;77.70;44.00;;;;;;;11.59;100.00;100210.02;214415;1288;140824;-82
2024/03/12 11:38:58;;;;;;;75.10;45.10;;;;;;;11.77;100.00;100209.06;214126;1283;140883;-84
2024/03/12 11:43:58;;;;;;;69.20;42.40;;;;;;;12.00;100.00;100206.45;214447;1286;110250;-84
2024/03/12 11:48:59;;;;;;;74.40;46.50;;;;;;;12.21;100.00;100207.49;213893;1287;140981;-84
2024/03/12 11:54:02;;;;;;;73.00;47.00;;;;;;;12.40;100.00;100203.26;214371;1284;139407;-83
2024/03/12 11:59:05;;;;;;;79.60;54.00;;;;;;;12.55;100.00;100203.48;213962;1285;140801;-84
2024/03/12 12:04:09;;;;;;;80.40;52.80;;;;;;;12.77;100.00;100204.48;214395;1286;139945;-84
2024/03/12 12:09:10;;;;;;;71.40;55.60;;;;;;;12.97;100.00;100202.81;213951;1282;140463;-84
2024/03/12 12:14:11;;;;;;;66.20;49.80;;;;;;;13.06;100.00;100206.42;214261;1285;113626;-84
2024/03/12 12:19:13;;;;;;;72.20;57.60;;;;;;;13.08;100.00;100203.59;214379;1282;140959;-84
2024/03/12 12:24:14;;;;;;;71.50;62.90;;;;;;;13.12;100.00;100202.86;214628;1287;139328;-83
2024/03/12 12:29:15;;;;;;;85.90;77.10;;;;;;;13.26;100.00;100207.32;214046;1285;141436;-83
2024/03/12 12:34:15;;;;;;;85.00;76.30;;;;;;;13.39;100.00;100209.33;214462;1283;139666;-84
2024/03/12 12:39:16;;;;;;;86.30;77.00;;;;;;;13.44;100.00;100207.96;214079;1287;140756;-83
2024/03/12 12:44:22;;;;;;;116.20;106.10;;;;;;;13.54;100.00;100212.27;214631;1288;112265;-84
2024/03/12 12:49:24;;;;;;;93.30;84.50;;;;;;;13.71;100.00;100206.98;214058;1282;141200;-84
2024/03/12 12:54:26;;;;;;;109.10;99.30;;;;;;;13.84;100.00;100205.30;214585;1286;139172;-84
2024/03/12 12:59:34;;;;;;;127.60;117.50;;;;;;;13.97;100.00;100204.20;213935;1288;140997;-83
2024/03/12 13:04:35;;;;;;;132.70;122.30;;;;;;;14.06;100.00;100204.55;214212;1288;139641;-83
2024/03/12 13:09:36;;;;;;;124.50;114.30;;;;;;;14.14;100.00;100199.98;213775;1284;141291;-84
2024/03/12 13:14:41;;;;;;;134.10;123.10;;;;;;;14.23;100.00;100203.04;214571;1288;97979;-84
2024/03/12 13:19:42;;;;;;;100.70;91.70;;;;;;;14.19;100.00;100201.86;214011;1285;141126;-83
2024/03/12 13:24:43;;;;;;;140.80;130.30;;;;;;;14.16;100.00;100206.85;215109;1287;139535;-84
2024/03/12 13:29:44;;;;;;;103.50;95.20;;;;;;;14.18;100.00;100207.89;214313;1287;140927;-84
2024/03/12 13:34:44;;;;;;;91.30;83.30;;;;;;;14.22;100.00;100211.66;214703;1287;139759;-84
2024/03/12 13:39:44;;;;;;;125.80;115.70;;;;;;;14.15;100.00;100215.48;214303;1288;140347;-83
2024/03/12 13:44:45;;;;;;;131.00;120.30;;;;;;;14.15;100.00;100214.30;214604;1288;98061;-84
2024/03/12 13:49:47;;;;;;;78.30;70.60;;;;;;;14.13;100.00;100218.73;214153;1284;140771;-85
2024/03/12 13:54:48;;;;;;;101.90;93.00;;;;;;;14.09;100.00;100218.68;215055;1288;139553;-84
2024/03/12 13:59:52;;;;;;;106.30;97.60;;;;;;;14.02;100.00;100218.09;215244;1282;141087;-84
2024/03/12 14:04:52;;;;;;;98.50;89.90;;;;;;;14.03;100.00;100217.39;214270;1285;139632;-85
2024/03/12 14:09:54;;;;;;;109.20;100.30;;;;;;;13.98;100.00;100219.23;213561;1287;141717;-84
2024/03/12 14:14:55;;;;;;;91.10;83.30;;;;;;;13.95;100.00;100221.54;214419;1284;140503;-85
2024/03/12 14:19:56;;;;;;;116.80;107.50;;;;;;;13.86;100.00;100226.02;213875;1283;141477;-84
2024/03/12 14:24:56;;;;;;;111.60;102.60;;;;;;;13.90;100.00;100230.10;215652;1284;142187;-83
2024/03/12 14:30:01;;;;;;;115.40;106.30;;;;;;;13.98;100.00;100232.11;213896;1288;143085;-83
2024/03/12 14:35:01;;;;;;;120.10;111.00;;;;;;;14.03;100.00;100228.60;214129;1287;139793;-83
2024/03/12 14:40:07;;;;;;;74.90;68.00;;;;;;;14.04;100.00;100226.62;213722;1285;140852;-84
2024/03/12 14:45:07;;;;;;;85.80;78.20;;;;;;;13.91;100.00;100229.30;214264;1285;139166;-84
2024/03/12 14:50:09;;;;;;;91.50;83.70;;;;;;;13.92;100.00;100230.25;213787;1285;140346;-83
2024/03/12 14:55:10;;;;;;;78.80;68.60;;;;;;;13.81;100.00;100238.45;214269;1285;139320;-84
2024/03/12 15:00:10;;;;;;;78.50;71.30;;;;;;;13.61;100.00;100234.90;213810;1283;140832;-83
2024/03/12 15:05:11;;;;;;;64.40;57.90;;;;;;;13.49;100.00;100239.63;214264;1288;139673;-85
2024/03/12 15:10:12;;;;;;;77.90;70.40;;;;;;;13.39;100.00;100241.48;213787;1285;140719;-84
2024/03/12 15:15:14;;;;;;;80.10;71.90;;;;;;;13.35;100.00;100247.09;214390;1282;139283;-84
2024/03/12 15:20:15;;;;;;;60.70;51.40;;;;;;;13.28;100.00;100248.52;214073;1282;140617;-83
2024/03/12 15:25:18;;;;;;;59.60;50.30;;;;;;;13.33;100.00;100248.36;214631;1282;138999;-84
2024/03/12 15:30:19;;;;;;;69.10;60.90;;;;;;;13.30;100.00;100253.66;214183;1285;141478;-83
2024/03/12 15:35:19;;;;;;;67.90;59.10;;;;;;;13.25;100.00;100259.52;214515;1285;139410;-83
2024/03/12 15:40:22;;;;;;;78.10;70.20;;;;;;;13.20;100.00;100259.14;213843;1288;140597;-83
2024/03/12 15:45:23;;;;;;;77.10;69.50;;;;;;;13.17;100.00;100259.14;214290;1288;139267;-84
2024/03/12 15:50:26;;;;;;;74.40;58.40;;;;;;;13.13;100.00;100262.86;214140;1283;140308;-84
2024/03/12 15:55:26;;;;;;;64.80;54.80;;;;;;;13.07;100.00;100266.98;214697;1284;139196;-83
2024/03/12 16:00:28;;;;;;;62.40;53.00;;;;;;;12.99;100.00;100269.83;214495;1282;140241;-83
2024/03/12 16:05:29;;;;;;;58.70;40.50;;;;;;;12.94;100.00;100272.50;214679;1285;139832;-84
2024/03/12 16:10:31;;;;;;;57.10;43.10;;;;;;;12.84;100.00;100271.09;214238;1282;140378;-83
2024/03/12 16:15:32;;;;;;;62.60;41.60;;;;;;;12.73;100.00;100272.66;214436;1282;139841;-84
2024/03/12 16:20:32;;;;;;;59.50;42.80;;;;;;;12.48;100.00;100273.45;214369;1286;140104;-84
2024/03/12 16:25:33;;;;;;;60.60;41.80;;;;;;;12.39;100.00;100278.41;214743;1287;139599;-82
2024/03/12 16:30:33;;;;;;;85.40;49.40;;;;;;;12.38;100.00;100281.08;213911;1288;140748;-83
2024/03/12 16:35:33;;;;;;;459.30;231.20;;;;;;;12.23;100.00;100282.63;214499;1285;139651;-83
2024/03/12 16:40:34;;;;;;;207.60;101.40;;;;;;;12.17;100.00;100290.34;214039;1285;140623;-83
2024/03/12 16:45:34;;;;;;;147.70;76.70;;;;;;;12.10;100.00;100286.94;214422;1282;139517;-83
2024/03/12 16:50:34;;;;;;;93.90;51.90;;;;;;;12.06;100.00;100293.94;214203;1282;140643;-84
2024/03/12 16:55:35;;;;;;;76.30;44.30;;;;;;;12.05;100.00;100299.92;214760;1283;139848;-83
2024/03/12 17:00:36;;;;;;;73.40;43.30;;;;;;;11.97;100.00;100299.11;213661;1288;140691;-83
2024/03/12 17:05:36;;;;;;;66.60;40.20;;;;;;;11.85;100.00;100299.63;214286;1283;139735;-83
2024/03/12 17:10:37;;;;;;;78.30;45.40;;;;;;;11.76;100.00;100303.20;213832;1288;140309;-83
2024/03/12 17:15:44;;;;;;;78.60;44.00;;;;;;;11.67;100.00;100304.98;214639;1282;139708;-81
2024/03/12 17:20:44;;;;;;;74.30;41.60;;;;;;;11.58;100.00;100313.73;214231;1288;140210;-82
2024/03/12 17:25:45;;;;;;;72.30;41.90;;;;;;;11.47;100.00;100314.36;215154;1282;138998;-84
2024/03/12 17:30:45;;;;;;;68.60;41.40;;;;;;;11.31;100.00;100317.19;213755;1284;140749;-84
2024/03/12 17:35:51;;;;;;;82.40;46.60;;;;;;;11.19;100.00;100320.89;214538;1282;139390;-84
2024/03/12 17:40:56;;;;;;;118.40;62.30;;;;;;;11.06;100.00;100328.59;214193;1285;140268;-84
2024/03/12 17:45:57;;;;;;;95.00;47.90;;;;;;;10.91;100.00;100329.04;214859;1287;140486;-84
2024/03/12 17:50:58;;;;;;;87.30;48.60;;;;;;;10.74;100.00;100333.99;214247;1285;141134;-84
2024/03/12 17:56:00;;;;;;;78.40;44.30;;;;;;;10.64;100.00;100332.08;214731;1285;97945;-84
2024/03/12 18:01:01;;;;;;;74.80;41.80;;;;;;;10.54;100.00;100335.07;214122;1288;140354;-84
2024/03/12 18:06:03;;;;;;;74.40;41.10;;;;;;;10.38;100.00;100341.03;214628;1283;139311;-84
2024/03/12 18:11:08;;;;;;;83.90;44.80;;;;;;;10.27;100.00;100341.15;213960;1282;140685;-84
2024/03/12 18:16:10;;;;;;;108.70;54.60;;;;;;;10.24;100.00;100345.21;214470;1285;139222;-84
2024/03/12 18:21:10;;;;;;;86.10;45.40;;;;;;;10.18;100.00;100347.09;213973;1288;140917;-85
2024/03/12 18:26:11;;;;;;;88.50;48.30;;;;;;;10.06;100.00;100349.55;214743;1285;98124;-84
2024/03/12 18:31:11;;;;;;;87.50;45.80;;;;;;;10.02;100.00;100349.48;214296;1282;139769;-83
2024/03/12 18:36:11;;;;;;;93.90;49.00;;;;;;;9.91;100.00;100354.60;214623;1282;139126;-84
2024/03/12 18:41:13;;;;;;;97.90;51.90;;;;;;;9.83;100.00;100362.27;214056;1282;139937;-85
2024/03/12 18:46:14;;;;;;;89.90;48.30;;;;;;;9.76;100.00;100366.36;214644;1285;138917;-84
2024/03/12 18:51:17;;;;;;;147.70;64.80;;;;;;;9.67;100.00;100367.34;214039;1288;139694;-85
2024/03/12 18:56:17;;;;;;;111.70;52.80;;;;;;;9.61;100.00;100368.59;214409;1285;138799;-84
2024/03/12 19:01:20;;;;;;;128.40;57.50;;;;;;;9.59;100.00;100369.58;214337;1287;154597;-85
2024/03/12 19:06:21;;;;;;;115.70;54.00;;;;;;;9.61;100.00;100371.39;214191;1287;141077;-84
2024/03/12 19:11:22;;;;;;;134.50;61.10;;;;;;;9.55;100.00;100371.56;214739;1283;139217;-84
2024/03/12 19:16:24;;;;;;;116.10;61.40;;;;;;;9.47;100.00;100370.98;214179;1282;167137;-85
2024/03/12 19:21:25;;;;;;;111.30;57.20;;;;;;;9.40;100.00;100376.44;214637;1282;139050;-85
2024/03/12 19:26:26;;;;;;;115.80;59.40;;;;;;;9.35;100.00;100379.41;215163;1282;139722;-85
2024/03/12 19:31:27;;;;;;;100.60;53.50;;;;;;;9.27;100.00;100378.52;215182;1287;139510;-84
2024/03/12 19:36:29;;;;;;;100.30;53.40;;;;;;;9.14;100.00;100378.69;214165;1285;140535;-85
2024/03/12 19:41:30;;;;;;;136.40;69.30;;;;;;;8.98;100.00;100383.55;214649;1282;139641;-85
2024/03/12 19:46:31;;;;;;;138.10;64.70;;;;;;;8.90;100.00;100387.65;214252;1285;141119;-86
2024/03/12 19:51:32;;;;;;;118.70;58.90;;;;;;;8.78;100.00;100395.89;214560;1282;139010;-85
2024/03/12 19:56:33;;;;;;;132.00;61.40;;;;;;;8.68;100.00;100389.36;214231;1288;140816;-85
2024/03/12 20:01:33;;;;;;;164.30;70.40;;;;;;;8.50;100.00;100384.50;214394;1285;138949;-84
2024/03/12 20:06:34;;;;;;;139.30;66.40;;;;;;;8.45;100.00;100382.34;213888;1282;140393;-85
2024/03/12 20:11:34;;;;;;;129.70;59.80;;;;;;;8.41;100.00;100386.19;214579;1288;138994;-85
2024/03/12 20:16:34;;;;;;;111.10;53.90;;;;;;;8.36;100.00;100389.16;213900;1288;140784;-85
2024/03/12 20:21:35;;;;;;;102.90;53.80;;;;;;;8.27;100.00;100401.36;214471;1287;139025;-86
2024/03/12 20:26:37;;;;;;;175.50;73.80;;;;;;;8.18;100.00;100407.73;215489;1282;140875;-85
2024/03/12 20:31:38;;;;;;;137.00;61.70;;;;;;;8.02;100.00;100408.27;214659;1282;176848;-85
2024/03/12 20:36:44;;;;;;;115.20;57.90;;;;;;;7.97;100.00;100407.54;214058;1286;140912;-86
2024/03/12 20:41:45;;;;;;;126.20;59.90;;;;;;;7.92;100.00;100408.04;214505;1284;139432;-87
2024/03/12 20:46:48;;;;;;;131.20;60.10;;;;;;;7.87;100.00;100410.21;214087;1288;141142;-86
2024/03/12 20:51:48;;;;;;;138.40;64.50;;;;;;;7.77;100.00;100404.20;214591;1283;139384;-86
2024/03/12 20:56:49;;;;;;;136.70;65.10;;;;;;;7.67;100.00;100408.59;213930;1288;140193;-85
2024/03/12 21:01:50;;;;;;;129.10;63.40;;;;;;;7.59;100.00;100407.79;214691;1287;154130;-86
2024/03/12 21:06:51;;;;;;;142.80;68.00;;;;;;;7.60;100.00;100414.31;213797;1282;140408;-86
2024/03/12 21:11:52;;;;;;;136.80;65.90;;;;;;;7.60;100.00;100416.95;214550;1282;139121;-85
2024/03/12 21:16:52;;;;;;;131.30;66.70;;;;;;;7.61;100.00;100420.27;214220;1282;140118;-85
2024/03/12 21:21:55;;;;;;;133.70;70.60;;;;;;;7.56;100.00;100421.65;214636;1285;140256;-85
2024/03/12 21:26:57;;;;;;;130.50;67.80;;;;;;;7.53;100.00;100422.82;215437;1282;139233;-85
2024/03/12 21:31:58;;;;;;;137.90;67.10;;;;;;;7.48;100.00;100426.00;214761;1285;98383;-86
2024/03/12 21:36:58;;;;;;;109.20;56.90;;;;;;;7.45;100.00;100425.14;214155;1285;139893;-86
2024/03/12 21:41:59;;;;;;;118.30;59.40;;;;;;;7.41;100.00;100422.39;214584;1286;139090;-85
2024/03/12 21:46:59;;;;;;;106.00;57.40;;;;;;;7.36;100.00;100424.07;214057;1288;140401;-83
2024/03/12 21:52:00;;;;;;;120.70;60.30;;;;;;;7.36;100.00;100427.67;214650;1282;139049;-84
2024/03/12 21:57:01;;;;;;;112.70;57.70;;;;;;;7.34;100.00;100430.74;214014;1282;140578;-84
2024/03/12 22:02:04;;;;;;;121.00;61.70;;;;;;;7.28;100.00;100436.17;214810;1285;104519;-84
2024/03/12 22:07:07;;;;;;;125.60;62.40;;;;;;;7.23;100.00;100441.83;213974;1282;140639;-85
2024/03/12 22:12:08;;;;;;;148.00;70.60;;;;;;;7.22;100.00;100440.15;214344;1285;139003;-84